createdAt,value
2024-01-11T00:01:15.306Z,97.88
2024-01-11T00:03:42.315Z,93.95
2024-01-11T00:06:10.005Z,87.43
2024-01-11T00:08:37.309Z,87.72
2024-01-11T00:11:05.039Z,95.55
2024-01-11T00:13:32.045Z,76.28
2024-01-11T00:15:59.337Z,76.53
2024-01-11T00:18:26.544Z,73.05
2024-01-11T00:20:54.082Z,72.00
2024-01-11T00:23:21.186Z,71.93
2024-01-11T00:25:48.535Z,81.88
2024-01-11T00:28:15.549Z,74.38
2024-01-11T00:30:42.834Z,78.63
2024-01-11T00:33:10.661Z,73.60
2024-01-11T00:35:38.173Z,74.40
2024-01-11T00:38:05.354Z,74.55
2024-01-11T00:40:32.600Z,83.10
2024-01-11T00:42:59.647Z,82.93
2024-01-11T00:45:26.974Z,69.88
2024-01-11T00:47:54.649Z,75.88
2024-01-11T00:50:22.693Z,82.28
2024-01-11T00:52:49.779Z,86.32
2024-01-11T00:55:17.514Z,83.03
2024-01-11T00:57:44.462Z,98.07
2024-01-11T01:00:16.019Z,101.35
2024-01-11T01:02:43.646Z,111.75
2024-01-11T01:05:11.340Z,108.85
2024-01-11T01:07:39.890Z,96.90
2024-01-11T01:10:53.034Z,91.25
2024-01-11T01:13:20.228Z,85.35
2024-01-11T01:15:47.674Z,99.35
2024-01-11T01:18:14.774Z,88.70
2024-01-11T01:20:42.295Z,107.45
2024-01-11T01:23:09.376Z,91.15
2024-01-11T01:25:36.818Z,89.80
2024-01-11T01:28:04.260Z,88.68
2024-01-11T01:30:31.699Z,92.60
2024-01-11T01:32:58.783Z,85.35
2024-01-11T01:35:26.162Z,83.65
2024-01-11T01:37:53.168Z,75.40
2024-01-11T01:40:20.521Z,82.25
2024-01-11T01:42:47.690Z,86.18
2024-01-11T01:45:16.963Z,91.10
2024-01-11T01:47:45.792Z,87.53
2024-01-11T01:50:14.481Z,88.28
2024-01-11T01:52:44.937Z,85.32
2024-01-11T01:55:16.105Z,80.70
2024-01-11T01:57:46.016Z,94.70
2024-01-11T02:00:14.734Z,91.28
2024-01-11T02:02:48.450Z,87.32
2024-01-11T02:05:19.091Z,87.38
2024-01-11T02:07:46.533Z,80.82
2024-01-11T02:10:13.910Z,95.00
2024-01-11T02:12:42.735Z,150.52
2024-01-11T02:15:10.438Z,152.35
2024-01-11T02:17:37.869Z,161.00
2024-01-11T02:20:06.162Z,156.93
2024-01-11T02:22:41.668Z,151.57
2024-01-11T02:25:09.518Z,123.22
2024-01-11T02:27:47.984Z,140.00
2024-01-11T02:30:16.447Z,116.97
2024-01-11T02:32:49.933Z,128.15
2024-01-11T02:35:18.122Z,102.65
2024-01-11T02:37:47.714Z,155.40
2024-01-11T02:40:16.369Z,147.55
2024-01-11T02:42:43.543Z,160.27
2024-01-11T02:45:15.903Z,141.05
2024-01-11T02:47:43.196Z,117.57
2024-01-11T02:50:13.076Z,99.20
2024-01-11T02:52:40.367Z,93.15
2024-01-11T02:55:08.042Z,94.05
2024-01-11T02:57:34.986Z,85.30
2024-01-11T03:00:02.327Z,94.65
2024-01-11T03:02:29.570Z,83.38
2024-01-11T03:04:56.975Z,76.07
2024-01-11T03:07:24.005Z,74.78
2024-01-11T03:09:51.303Z,83.70
2024-01-11T03:12:18.302Z,76.28
2024-01-11T03:14:45.541Z,76.72
2024-01-11T03:17:12.592Z,77.40
2024-01-11T03:19:43.301Z,75.97
2024-01-11T03:22:13.303Z,73.18
2024-01-11T03:24:40.832Z,78.05
2024-01-11T03:27:07.994Z,71.63
2024-01-11T03:29:35.404Z,78.85
2024-01-11T03:32:02.620Z,77.00
2024-01-11T03:34:29.927Z,77.22
2024-01-11T03:36:57.031Z,81.82
2024-01-11T03:39:26.661Z,73.53
2024-01-11T03:41:53.900Z,78.50
2024-01-11T03:44:21.224Z,82.50
2024-01-11T03:46:48.299Z,80.90
2024-01-11T03:49:15.644Z,89.22
2024-01-11T03:51:42.653Z,81.18
2024-01-11T03:54:10.060Z,82.18
2024-01-11T03:56:40.754Z,88.72
2024-01-11T03:59:08.325Z,83.10
2024-01-11T04:01:42.136Z,91.85
2024-01-11T04:04:09.878Z,74.45
2024-01-11T04:06:37.024Z,98.88
2024-01-11T04:09:04.405Z,92.85
2024-01-11T04:11:31.936Z,97.35
2024-01-11T04:13:59.326Z,98.25
2024-01-11T04:16:26.396Z,100.97
2024-01-11T04:18:53.813Z,98.20
2024-01-11T04:21:23.580Z,101.97
2024-01-11T04:23:52.073Z,105.80
2024-01-11T04:26:19.207Z,105.07
2024-01-11T04:28:47.684Z,100.65
2024-01-11T04:31:18.310Z,92.78
2024-01-11T04:33:47.331Z,90.10
2024-01-11T04:36:15.036Z,94.50
2024-01-11T04:38:42.415Z,89.07
2024-01-11T04:41:14.474Z,86.47
2024-01-11T04:43:43.945Z,93.90
2024-01-11T04:46:22.443Z,93.10
2024-01-11T04:48:51.510Z,92.85
2024-01-11T04:51:19.612Z,98.70
2024-01-11T04:53:48.198Z,104.22
2024-01-11T04:56:17.266Z,106.45
2024-01-11T04:58:47.085Z,102.05
2024-01-11T05:01:16.957Z,103.63
2024-01-11T05:03:47.516Z,96.97
2024-01-11T05:06:23.340Z,105.38
2024-01-11T05:08:53.956Z,107.00
2024-01-11T05:11:25.942Z,89.93
2024-01-11T05:13:54.079Z,94.22
2024-01-11T05:16:31.061Z,87.63
2024-01-11T05:18:59.818Z,94.05
2024-01-11T05:21:27.520Z,95.47
2024-01-11T05:23:55.101Z,88.50
2024-01-11T05:26:22.649Z,96.53
2024-01-11T05:28:50.055Z,95.32
2024-01-11T05:31:17.742Z,87.70
2024-01-11T05:33:47.114Z,89.82
2024-01-11T05:36:14.401Z,84.53
2024-01-11T05:38:42.086Z,88.10
2024-01-11T05:41:09.935Z,88.57
2024-01-11T05:43:40.455Z,92.88
2024-01-11T05:46:08.483Z,85.35
2024-01-11T05:48:36.554Z,80.60
2024-01-11T05:51:03.793Z,84.65
2024-01-11T05:53:31.102Z,91.22
2024-01-11T05:55:58.269Z,80.47
2024-01-11T05:58:25.590Z,82.28
2024-01-11T06:00:52.696Z,93.85
2024-01-11T06:03:20.090Z,84.43
2024-01-11T06:05:47.595Z,88.65
2024-01-11T06:08:14.960Z,88.15
2024-01-11T06:10:42.754Z,86.13
2024-01-11T06:13:10.876Z,94.90
2024-01-11T06:15:37.965Z,94.65
2024-01-11T06:18:06.302Z,81.63
2024-01-11T06:20:33.666Z,89.72
2024-01-11T06:23:01.199Z,85.45
2024-01-11T06:25:28.895Z,84.75
2024-01-11T06:27:56.716Z,87.28
2024-01-11T06:30:23.704Z,82.15
2024-01-11T06:32:51.210Z,92.53
2024-01-11T06:35:18.517Z,92.72
2024-01-11T06:37:45.832Z,98.95
2024-01-11T06:40:12.855Z,89.05
2024-01-11T06:42:40.123Z,77.03
2024-01-11T06:45:07.944Z,81.22
2024-01-11T06:47:35.500Z,78.72
2024-01-11T06:50:04.087Z,82.18
2024-01-11T06:52:31.427Z,88.75
2024-01-11T06:54:58.646Z,91.93
2024-01-11T06:57:25.950Z,81.35
2024-01-11T06:59:53.152Z,88.65
2024-01-11T07:02:20.531Z,94.03
2024-01-11T07:04:47.493Z,98.03
2024-01-11T07:07:14.933Z,99.20
2024-01-11T07:09:41.873Z,89.78
2024-01-11T07:12:10.094Z,80.80
2024-01-11T07:14:37.629Z,85.20
2024-01-11T07:17:05.593Z,87.90
2024-01-11T07:19:33.922Z,88.20
2024-01-11T07:22:02.856Z,72.97
2024-01-11T07:24:38.466Z,84.05
2024-01-11T07:27:07.490Z,95.63
2024-01-11T07:29:35.725Z,81.55
2024-01-11T07:32:05.408Z,83.03
2024-01-11T07:34:34.085Z,88.05
2024-01-11T07:37:01.616Z,82.60
2024-01-11T07:39:28.834Z,78.63
2024-01-11T07:41:56.199Z,80.15
2024-01-11T07:44:23.345Z,83.03
2024-01-11T07:46:54.325Z,78.43
2024-01-11T07:49:23.046Z,81.75
2024-01-11T07:51:50.566Z,88.50
2024-01-11T07:54:17.821Z,85.90
2024-01-11T07:56:45.224Z,79.10
2024-01-11T07:59:16.226Z,73.18
2024-01-11T08:01:44.039Z,74.75
2024-01-11T08:04:11.233Z,81.68
2024-01-11T08:06:39.033Z,77.60
2024-01-11T08:09:06.801Z,77.40
2024-01-11T08:11:36.675Z,83.25
2024-01-11T08:14:07.245Z,80.93
2024-01-11T08:16:34.930Z,82.50
2024-01-11T08:19:02.518Z,77.35
2024-01-11T08:21:30.386Z,76.15
2024-01-11T08:24:01.565Z,72.32
2024-01-11T08:26:33.290Z,68.88
2024-01-11T08:29:00.515Z,83.18
2024-01-11T08:31:28.995Z,77.57
2024-01-11T08:33:56.310Z,80.15
2024-01-11T08:36:23.634Z,76.65
2024-01-11T08:38:51.050Z,77.22
2024-01-11T08:41:18.576Z,86.80
2024-01-11T08:43:45.569Z,82.85
2024-01-11T08:46:12.798Z,76.45
2024-01-11T08:48:39.846Z,81.30
2024-01-11T08:51:07.656Z,104.18
2024-01-11T08:53:34.810Z,72.75
2024-01-11T08:56:02.403Z,77.13
2024-01-11T08:58:29.615Z,80.38
2024-01-11T09:00:57.039Z,78.40
2024-01-11T09:03:24.129Z,80.13
2024-01-11T09:05:51.946Z,87.53
2024-01-11T09:08:19.318Z,73.60
2024-01-11T09:10:47.437Z,83.80
2024-01-11T09:13:15.198Z,79.10
2024-01-11T09:15:43.571Z,78.40
2024-01-11T09:18:11.058Z,78.65
2024-01-11T09:20:38.677Z,79.07
2024-01-11T09:23:07.280Z,89.43
2024-01-11T09:25:37.095Z,89.22
2024-01-11T09:28:04.894Z,83.47
2024-01-11T09:30:32.296Z,90.50
2024-01-11T09:32:59.404Z,74.53
2024-01-11T09:35:26.827Z,88.55
2024-01-11T09:37:53.953Z,103.55
2024-01-11T09:40:21.669Z,77.18
2024-01-11T09:42:49.841Z,76.75
2024-01-11T09:45:18.551Z,87.22
2024-01-11T09:47:47.372Z,71.50
2024-01-11T09:50:19.333Z,87.78
2024-01-11T09:52:51.634Z,87.93
2024-01-11T09:55:19.889Z,97.10
2024-01-11T09:58:00.875Z,81.47
2024-01-11T10:00:29.827Z,77.70
2024-01-11T10:02:56.967Z,81.50
2024-01-11T10:05:24.593Z,70.22
2024-01-11T10:07:51.695Z,70.72
2024-01-11T10:10:19.044Z,72.57
2024-01-11T10:12:46.336Z,85.80
2024-01-11T10:15:15.021Z,74.72
2024-01-11T10:17:47.006Z,74.55
2024-01-11T10:20:15.727Z,72.47
2024-01-11T10:22:44.107Z,69.97
2024-01-11T10:25:45.576Z,77.97
2024-01-11T10:28:15.631Z,77.60
2024-01-11T10:30:47.403Z,65.13
2024-01-11T10:33:14.571Z,63.50
2024-01-11T10:35:42.572Z,79.65
2024-01-11T10:38:11.773Z,69.53
2024-01-11T10:40:39.140Z,74.70
2024-01-11T10:43:12.673Z,71.22
2024-01-11T10:45:40.555Z,59.00
2024-01-11T10:48:18.177Z,77.05
2024-01-11T10:50:47.633Z,75.63
2024-01-11T10:53:35.568Z,68.18
2024-01-11T10:56:08.433Z,71.40
2024-01-11T10:58:36.814Z,73.60
2024-01-11T11:01:05.758Z,70.55
2024-01-11T11:03:35.613Z,71.13
2024-01-11T11:06:05.340Z,71.40
2024-01-11T11:08:33.319Z,70.50
2024-01-11T11:11:05.530Z,63.22
2024-01-11T11:13:52.650Z,68.82
2024-01-11T11:16:21.091Z,76.03
2024-01-11T11:18:48.452Z,84.95
2024-01-11T11:21:16.503Z,71.63
2024-01-11T11:24:00.836Z,72.95
2024-01-11T11:26:50.736Z,77.53
2024-01-11T11:29:19.175Z,76.63
2024-01-11T11:31:49.025Z,62.58
2024-01-11T11:34:17.658Z,70.20
2024-01-11T11:36:47.957Z,65.25
2024-01-11T11:39:15.511Z,69.00
2024-01-11T11:41:44.026Z,62.58
2024-01-11T11:44:17.008Z,67.35
2024-01-11T11:46:46.459Z,65.13
2024-01-11T11:49:14.859Z,73.65
2024-01-11T11:51:45.096Z,75.03
2024-01-11T11:54:34.268Z,72.32
2024-01-11T11:57:01.825Z,71.35
2024-01-11T11:59:30.022Z,58.50
2024-01-11T12:02:00.593Z,71.35
2024-01-11T12:04:27.986Z,68.47
2024-01-11T12:06:55.746Z,68.00
2024-01-11T12:09:24.467Z,61.83
2024-01-11T12:12:02.141Z,73.20
2024-01-11T12:14:35.311Z,71.07
2024-01-11T12:17:05.294Z,67.13
2024-01-11T12:19:32.406Z,78.25
2024-01-11T12:22:01.283Z,75.35
2024-01-11T12:24:28.802Z,72.85
2024-01-11T12:26:57.170Z,80.15
2024-01-11T12:29:24.715Z,85.13
2024-01-11T12:31:53.437Z,82.25
2024-01-11T12:34:22.312Z,73.93
2024-01-11T12:36:49.816Z,71.25
2024-01-11T12:39:18.280Z,70.95
2024-01-11T12:41:45.825Z,77.95
2024-01-11T12:44:13.010Z,75.53
2024-01-11T12:46:56.528Z,76.53
2024-01-11T12:49:24.129Z,63.38
2024-01-11T12:51:51.612Z,63.85
2024-01-11T12:54:20.649Z,65.25
2024-01-11T12:56:48.122Z,68.07
2024-01-11T12:59:17.608Z,68.03
2024-01-11T13:01:45.097Z,66.88
2024-01-11T13:04:13.113Z,57.75
2024-01-11T13:06:40.980Z,68.25
2024-01-11T13:09:09.368Z,65.47
2024-01-11T13:11:36.876Z,65.75
2024-01-11T13:14:07.937Z,67.32
2024-01-11T13:16:35.463Z,64.45
2024-01-11T13:19:08.066Z,66.25
2024-01-11T13:21:40.832Z,64.25
2024-01-11T13:24:11.157Z,64.97
2024-01-11T13:26:38.640Z,59.72
2024-01-11T13:29:09.156Z,62.10
2024-01-11T13:31:36.419Z,58.95
2024-01-11T13:34:04.781Z,49.58
2024-01-11T13:36:32.343Z,56.90
2024-01-11T13:38:59.294Z,60.65
2024-01-11T13:41:26.772Z,57.50
2024-01-11T13:43:55.596Z,64.00
2024-01-11T13:46:23.079Z,60.83
2024-01-11T13:48:50.136Z,59.35
2024-01-11T13:51:17.603Z,63.15
2024-01-11T13:53:44.757Z,62.00
2024-01-11T13:56:12.296Z,61.53
2024-01-11T13:58:39.439Z,51.65
2024-01-11T14:01:06.841Z,56.80
2024-01-11T14:03:33.922Z,57.47
2024-01-11T14:06:01.770Z,61.33
2024-01-11T14:08:29.095Z,61.55
2024-01-11T14:10:56.522Z,50.30
2024-01-11T14:13:23.533Z,46.22
2024-01-11T14:15:52.257Z,51.63
2024-01-11T14:18:20.394Z,55.08
2024-01-11T14:20:48.245Z,56.00
2024-01-11T14:23:15.373Z,54.83
2024-01-11T14:25:42.874Z,64.00
2024-01-11T14:28:09.925Z,52.03
2024-01-11T14:30:37.332Z,54.95
2024-01-11T14:33:05.146Z,58.35
2024-01-11T14:35:32.662Z,53.35
2024-01-11T14:37:59.770Z,55.60
2024-01-11T14:40:28.502Z,52.30
2024-01-11T14:42:56.794Z,55.97
2024-01-11T14:45:24.077Z,57.33
2024-01-11T14:47:51.148Z,54.90
2024-01-11T14:50:18.628Z,51.53
2024-01-11T14:52:45.712Z,52.13
2024-01-11T14:55:12.939Z,55.90
2024-01-11T14:58:25.605Z,55.47
2024-01-11T15:01:02.374Z,49.33
2024-01-11T15:03:29.380Z,53.25
2024-01-11T15:05:57.105Z,50.75
2024-01-11T15:08:24.211Z,49.67
2024-01-11T15:10:51.551Z,60.72
2024-01-11T15:13:18.538Z,53.22
2024-01-11T15:15:46.071Z,58.10
2024-01-11T15:18:13.465Z,50.67
2024-01-11T15:20:42.581Z,49.70
2024-01-11T15:23:09.774Z,53.97
2024-01-11T15:25:45.597Z,54.03
2024-01-11T15:28:27.637Z,51.88
2024-01-11T15:30:55.053Z,57.53
2024-01-11T15:33:22.235Z,55.70
2024-01-11T15:35:49.697Z,50.13
2024-01-11T15:38:34.992Z,49.55
2024-01-11T15:41:24.616Z,56.15
2024-01-11T15:43:51.856Z,51.95
2024-01-11T15:46:19.186Z,54.45
2024-01-11T15:49:28.193Z,56.72
2024-01-11T15:51:55.535Z,53.72
2024-01-11T15:54:22.710Z,50.53
2024-01-11T15:56:50.377Z,55.55
2024-01-11T15:59:23.924Z,49.42
2024-01-11T16:02:00.724Z,53.55
2024-01-11T16:04:33.565Z,46.88
2024-01-11T16:07:01.056Z,50.83
2024-01-11T16:09:28.261Z,53.92
2024-01-11T16:12:02.344Z,51.55
2024-01-11T16:14:32.268Z,58.78
2024-01-11T16:16:59.771Z,54.90
2024-01-11T16:19:26.909Z,53.92
2024-01-11T16:21:54.273Z,52.47
2024-01-11T16:24:21.239Z,59.38
2024-01-11T16:26:55.369Z,57.83
2024-01-11T16:29:22.541Z,59.85
2024-01-11T16:31:51.549Z,59.78
2024-01-11T16:34:18.556Z,57.22
2024-01-11T16:36:46.176Z,57.10
2024-01-11T16:39:13.237Z,53.40
2024-01-11T16:41:42.294Z,52.28
2024-01-11T16:44:10.273Z,51.00
2024-01-11T16:46:37.739Z,51.13
2024-01-11T16:49:05.241Z,52.63
2024-01-11T16:51:33.235Z,54.58
2024-01-11T16:54:00.376Z,52.17
2024-01-11T16:56:28.001Z,52.55
2024-01-11T16:59:25.515Z,50.20
2024-01-11T17:01:52.949Z,47.33
2024-01-11T17:04:19.989Z,49.67
2024-01-11T17:06:47.439Z,51.70
2024-01-11T17:09:14.447Z,50.10
2024-01-11T17:11:42.029Z,47.38
2024-01-11T17:14:09.638Z,44.97
2024-01-11T17:16:37.391Z,47.17
2024-01-11T17:19:04.555Z,42.83
2024-01-11T17:21:32.405Z,46.70
2024-01-11T17:23:59.518Z,44.70
2024-01-11T17:26:26.929Z,45.72
2024-01-11T17:29:06.145Z,52.13
2024-01-11T17:31:33.751Z,66.40
2024-01-11T17:34:01.038Z,53.88
2024-01-11T17:36:28.855Z,55.05
2024-01-11T17:39:49.945Z,48.70
2024-01-11T17:42:18.629Z,55.17
2024-01-11T17:44:46.263Z,50.70
2024-01-11T17:47:13.832Z,49.17
2024-01-11T17:49:42.930Z,50.45
2024-01-11T17:52:10.638Z,45.15
2024-01-11T17:54:40.861Z,43.72
2024-01-11T17:57:10.789Z,49.63
2024-01-11T17:59:37.826Z,49.30
2024-01-11T18:02:05.278Z,46.90
2024-01-11T18:04:32.431Z,51.58
2024-01-11T18:06:59.752Z,49.67
2024-01-11T18:09:26.983Z,46.95
2024-01-11T18:11:54.278Z,50.80
2024-01-11T18:14:21.540Z,59.20
2024-01-11T18:16:48.921Z,65.22
2024-01-11T18:19:16.000Z,59.67
2024-01-11T18:21:43.794Z,54.97
2024-01-11T18:24:10.940Z,62.03
2024-01-11T18:26:38.216Z,61.97
2024-01-11T18:29:05.420Z,59.70
2024-01-11T18:31:32.721Z,59.50
2024-01-11T18:33:59.798Z,59.80
2024-01-11T18:36:27.033Z,57.17
2024-01-11T18:38:57.524Z,53.13
2024-01-11T18:41:25.140Z,54.30
2024-01-11T18:43:52.188Z,50.22
2024-01-11T18:46:21.751Z,46.35
2024-01-11T18:48:49.105Z,49.22
2024-01-11T18:51:16.542Z,41.80
2024-01-11T18:54:02.739Z,43.40
2024-01-11T18:56:30.619Z,39.67
2024-01-11T19:02:25.205Z,40.63
2024-01-11T19:04:52.579Z,49.35
2024-01-11T19:07:20.525Z,41.58
2024-01-11T19:09:48.216Z,39.58
2024-01-11T19:12:15.624Z,45.25
2024-01-11T19:14:59.295Z,44.53
2024-01-11T19:17:27.555Z,39.42
2024-01-11T19:19:56.538Z,40.80
2024-01-11T19:22:24.194Z,45.17
2024-01-11T19:24:51.220Z,43.67
2024-01-11T19:27:19.105Z,51.10
2024-01-11T19:29:46.541Z,48.58
2024-01-11T19:32:14.209Z,45.97
2024-01-11T19:34:41.218Z,54.20
2024-01-11T19:37:08.827Z,46.40
2024-01-11T19:39:36.051Z,47.15
2024-01-11T19:42:04.219Z,49.95
2024-01-11T19:44:32.089Z,50.97
2024-01-11T19:46:59.498Z,50.92
2024-01-11T19:49:35.722Z,50.28
2024-01-11T19:52:03.291Z,52.00
2024-01-11T19:54:30.685Z,54.55
2024-01-11T19:57:46.047Z,58.15
2024-01-11T20:00:19.843Z,62.33
2024-01-11T20:02:47.000Z,57.83
2024-01-11T20:05:14.644Z,66.20
2024-01-11T20:08:03.395Z,55.10
2024-01-11T20:10:35.612Z,57.17
2024-01-11T20:13:02.913Z,60.22
2024-01-11T20:15:30.917Z,64.53
2024-01-11T20:17:58.299Z,60.33
2024-01-11T20:20:25.606Z,53.50
2024-01-11T20:22:52.616Z,55.60
2024-01-11T20:25:20.448Z,57.78
2024-01-11T20:27:47.614Z,62.85
2024-01-11T20:30:15.104Z,60.60
2024-01-11T20:32:42.283Z,54.13
2024-01-11T20:35:10.029Z,57.80
2024-01-11T20:37:45.196Z,58.10
2024-01-11T20:40:12.743Z,55.13
2024-01-11T20:42:57.485Z,54.78
2024-01-11T20:45:40.423Z,53.63
2024-01-11T20:48:21.142Z,49.35
2024-01-11T20:50:49.382Z,50.65
2024-01-11T20:53:16.911Z,53.53
2024-01-11T20:55:44.684Z,54.88
2024-01-11T20:58:11.766Z,49.90
2024-01-11T21:00:39.964Z,49.95
2024-01-11T21:03:07.430Z,44.83
2024-01-11T21:05:35.832Z,46.90
2024-01-11T21:08:04.627Z,48.03
2024-01-11T21:10:32.476Z,47.83
2024-01-11T21:12:59.539Z,48.28
2024-01-11T21:15:26.878Z,57.08
2024-01-11T21:17:54.478Z,53.30
2024-01-11T21:20:21.991Z,57.38
2024-01-11T21:22:49.028Z,60.97
2024-01-11T21:25:16.628Z,58.42
2024-01-11T21:27:43.611Z,65.72
2024-01-11T21:30:12.468Z,57.03
2024-01-11T21:32:39.681Z,58.67
2024-01-11T21:35:09.024Z,63.90
2024-01-11T21:37:36.200Z,63.97
2024-01-11T21:40:05.256Z,55.05
2024-01-11T21:42:33.318Z,59.78
2024-01-11T21:45:26.757Z,59.95
2024-01-11T21:47:53.881Z,63.28
2024-01-11T21:50:21.616Z,59.80
2024-01-11T21:52:49.235Z,54.05
2024-01-11T21:55:16.788Z,56.55
2024-01-11T21:57:44.524Z,55.17
2024-01-11T22:00:13.599Z,63.75
2024-01-11T22:02:49.078Z,55.50
2024-01-11T22:05:38.239Z,60.15
2024-01-11T22:08:13.796Z,59.17
2024-01-11T22:10:45.298Z,55.25
2024-01-11T22:13:12.571Z,57.55
2024-01-11T22:15:39.827Z,57.55
2024-01-11T22:18:07.621Z,53.92
2024-01-11T22:20:36.352Z,52.22
2024-01-11T22:23:03.549Z,49.22
2024-01-11T22:25:30.815Z,59.58
2024-01-11T22:27:57.856Z,50.00
2024-01-11T22:30:26.151Z,54.53
2024-01-11T22:32:53.425Z,53.92
2024-01-11T22:35:20.934Z,47.60
2024-01-11T22:37:48.014Z,57.25
2024-01-11T22:40:15.811Z,53.90
2024-01-11T22:42:42.865Z,48.70
2024-01-11T22:45:11.648Z,54.05
2024-01-11T22:47:38.774Z,48.65
2024-01-11T22:50:07.171Z,43.35
2024-01-11T22:52:34.164Z,42.47
2024-01-11T22:55:01.529Z,49.42
2024-01-11T22:57:28.604Z,48.72
2024-01-11T22:59:55.890Z,46.28
2024-01-11T23:02:23.274Z,50.38
2024-01-11T23:04:50.932Z,44.92
2024-01-11T23:07:18.602Z,43.20
2024-01-11T23:09:45.863Z,45.75
2024-01-11T23:12:12.890Z,46.05
2024-01-11T23:14:40.142Z,47.80
2024-01-11T23:17:07.664Z,43.60
2024-01-11T23:19:35.075Z,44.05
2024-01-11T23:22:02.256Z,45.58
2024-01-11T23:24:29.471Z,41.92
2024-01-11T23:26:56.530Z,43.50
2024-01-11T23:29:23.840Z,48.63
2024-01-11T23:31:51.626Z,47.00
2024-01-11T23:34:19.104Z,49.15
2024-01-11T23:36:46.303Z,48.50
2024-01-11T23:39:13.616Z,46.22
2024-01-11T23:41:42.608Z,46.67
2024-01-11T23:44:09.919Z,45.63
2024-01-11T23:46:36.916Z,44.20
2024-01-11T23:49:04.407Z,49.60
2024-01-11T23:51:31.919Z,45.58
2024-01-11T23:53:59.294Z,45.63
2024-01-11T23:56:26.329Z,48.50
2024-01-11T23:58:53.598Z,52.55
